Schneifelwetter: Wetterstation Hallschlag, 537 m . NN
Wetterdaten: Donnerstag, 06.09.2012
Datum Zeit Temp. A. Feuchte A. Luftdruck Regen Wind Richtung Richtung Sonnenschein T Regen Taupunkt Windchill
06.09.2012 00:08 7,8 C 88 % 1023 hPa 0,0 l/m 12,1 km/h (2 Bft) N22.5 360 0 min 0 min 5,9 C 3,9 C
06.09.2012 00:23 9,4 C 90 % 1023 hPa 0,0 l/m 15,9 km/h (3 Bft) N-NO22.5 25 0 min 0 min 7,8 C 4,0 C
06.09.2012 00:38 10,1 C 89 % 1024 hPa 0,0 l/m 17,5 km/h (3 Bft) N-NO22.5 15 0 min 0 min 8,4 C 4,3 C
06.09.2012 00:53 10,4 C 87 % 1024 hPa 0,0 l/m 15,5 km/h (3 Bft) N-NO45 25 0 min 0 min 8,3 C 5,4 C
06.09.2012 01:08 10,4 C 87 % 1024 hPa 0,0 l/m 11,7 km/h (2 Bft) N-NO22.5 20 0 min 0 min 8,3 C 7,1 C
06.09.2012 01:23 10,4 C 87 % 1024 hPa 0,0 l/m 11,8 km/h (2 Bft) N-NO22.5 30 0 min 0 min 8,3 C 7,1 C
06.09.2012 01:38 10,3 C 87 % 1024 hPa 0,0 l/m 10,3 km/h (2 Bft) N-NO 25 0 min 0 min 8,2 C 7,8 C
06.09.2012 01:58 10,1 C 87 % 1024 hPa 0,0 l/m 10,6 km/h (2 Bft) N22.5 10 0 min 0 min 8,0 C 7,4 C
06.09.2012 02:13 9,9 C 87 % 1024 hPa 0,0 l/m 7,6 km/h (2 Bft) N-NO22.5 25 0 min 0 min 7,8 C 9,0 C
06.09.2012 02:28 9,8 C 88 % 1024 hPa 0,0 l/m 7,9 km/h (2 Bft) N 10 0 min 0 min 7,9 C 8,7 C
06.09.2012 02:43 9,8 C 89 % 1024 hPa 0,0 l/m 10,3 km/h (2 Bft) N45 5 0 min 0 min 8,1 C 7,2 C
06.09.2012 02:58 9,9 C 89 % 1025 hPa 0,0 l/m 10,6 km/h (2 Bft) N-NO45 25 0 min 0 min 8,2 C 7,1 C
06.09.2012 03:13 10,0 C 90 % 1025 hPa 0,0 l/m 20,8 km/h (4 Bft) N-NO22.5 15 0 min 0 min 8,4 C 3,0 C
06.09.2012 03:29 9,9 C 89 % 1025 hPa 0,0 l/m 15,0 km/h (3 Bft) N-NO67.5 25 0 min 0 min 8,2 C 5,0 C
06.09.2012 03:44 9,8 C 90 % 1024 hPa 0,0 l/m 13,3 km/h (3 Bft) N-NO22.5 20 0 min 0 min 8,2 C 5,6 C
06.09.2012 03:59 9,8 C 90 % 1024 hPa 0,0 l/m 9,8 km/h (2 Bft) N-NO22.5 25 0 min 0 min 8,2 C 7,5 C
06.09.2012 04:14 9,7 C 90 % 1024 hPa 0,0 l/m 13,9 km/h (3 Bft) NO67.5 35 0 min 0 min 8,1 C 5,3 C
06.09.2012 04:29 9,6 C 89 % 1024 hPa 0,0 l/m 16,1 km/h (3 Bft) N-NO22.5 20 0 min 0 min 7,9 C 4,2 C
06.09.2012 04:44 9,6 C 90 % 1024 hPa 0,0 l/m 13,7 km/h (3 Bft) NO 40 0 min 0 min 8,0 C 5,2 C
06.09.2012 04:59 9,5 C 90 % 1024 hPa 0,0 l/m 13,1 km/h (3 Bft) N-NO67.5 25 0 min 0 min 7,9 C 5,4 C
06.09.2012 05:14 9,5 C 90 % 1024 hPa 0,0 l/m 15,3 km/h (3 Bft) N-NO22.5 30 0 min 0 min 7,9 C 4,4 C
06.09.2012 05:29 9,5 C 90 % 1024 hPa 0,0 l/m 13,2 km/h (3 Bft) N-NO22.5 20 0 min 0 min 7,9 C 5,3 C
06.09.2012 05:44 9,4 C 90 % 1024 hPa 0,0 l/m 9,2 km/h (2 Bft) N-NO 25 0 min 0 min 7,8 C 7,4 C
06.09.2012 05:59 9,4 C 90 % 1024 hPa 0,0 l/m 8,8 km/h (2 Bft) N22.5 10 0 min 0 min 7,8 C 7,7 C
06.09.2012 06:14 9,3 C 90 % 1024 hPa 0,0 l/m 10,0 km/h (2 Bft) N 10 0 min 0 min 7,7 C 6,8 C
06.09.2012 06:29 9,2 C 90 % 1024 hPa 0,0 l/m 9,2 km/h (2 Bft) N 5 0 min 0 min 7,6 C 7,2 C
06.09.2012 06:44 9,2 C 91 % 1024 hPa 0,0 l/m 10,0 km/h (2 Bft) N67.5 5 0 min 0 min 7,8 C 6,7 C
06.09.2012 06:59 9,1 C 91 % 1025 hPa 0,0 l/m 9,0 km/h (2 Bft) N-NO 25 0 min 0 min 7,7 C 7,2 C
06.09.2012 07:14 9,2 C 91 % 1025 hPa 0,0 l/m 10,3 km/h (2 Bft) N-NO22.5 15 15 min 0 min 7,8 C 6,5 C
06.09.2012 07:29 9,2 C 91 % 1025 hPa 0,0 l/m 11,0 km/h (2 Bft) N-NO22.5 15 15 min 0 min 7,8 C 6,1 C
06.09.2012 07:44 9,3 C 92 % 1025 hPa 0,0 l/m 0,0 km/h (0 Bft) N-NO 20 15 min 0 min 8,1 C 9,3 C
06.09.2012 07:59 9,5 C 91 % 1025 hPa 0,0 l/m 8,5 km/h (2 Bft) N-NO 20 15 min 0 min 8,1 C 8,0 C
06.09.2012 08:14 9,6 C 91 % 1025 hPa 0,0 l/m 10,8 km/h (2 Bft) N-NO22.5 15 15 min 0 min 8,2 C 6,7 C
06.09.2012 08:29 9,9 C 91 % 1025 hPa 0,0 l/m 9,6 km/h (2 Bft) N-NO 20 15 min 0 min 8,5 C 7,7 C
06.09.2012 08:44 10,2 C 90 % 1025 hPa 0,0 l/m 10,0 km/h (2 Bft) N-NO22.5 20 15 min 0 min 8,6 C 7,8 C
06.09.2012 08:59 10,5 C 88 % 1026 hPa 0,0 l/m 11,0 km/h (2 Bft) N-NO 25 15 min 0 min 8,6 C 7,6 C
06.09.2012 09:14 10,9 C 86 % 1025 hPa 0,0 l/m 11,8 km/h (2 Bft) N-NO22.5 30 15 min 0 min 8,7 C 7,6 C
06.09.2012 09:29 11,3 C 83 % 1026 hPa 0,0 l/m 12,6 km/h (3 Bft) N-NO22.5 30 15 min 0 min 8,5 C 7,7 C
06.09.2012 09:43 11,6 C 78 % 1026 hPa 0,0 l/m 16,4 km/h (3 Bft) N-NO22.5 30 14 min 0 min 7,9 C 6,5 C
06.09.2012 09:59 11,8 C 78 % 1026 hPa 0,0 l/m 14,3 km/h (3 Bft) N45 10 16 min 0 min 8,1 C 7,6 C
06.09.2012 10:14 11,8 C 76 % 1026 hPa 0,0 l/m 15,0 km/h (3 Bft) N-NO22.5 30 15 min 0 min 7,7 C 7,3 C
06.09.2012 10:29 11,8 C 71 % 1026 hPa 0,0 l/m 13,5 km/h (3 Bft) NO45 45 15 min 0 min 6,7 C 7,9 C
06.09.2012 10:44 12,2 C 71 % 1026 hPa 0,0 l/m 11,9 km/h (2 Bft) NO67.5 50 15 min 0 min 7,1 C 9,1 C
06.09.2012 10:59 12,5 C 69 % 1026 hPa 0,0 l/m 16,0 km/h (3 Bft) NO22.5 40 15 min 0 min 7,0 C 7,8 C
06.09.2012 11:13 13,4 C 71 % 1026 hPa 0,0 l/m 13,6 km/h (3 Bft) NO67.5 55 14 min 0 min 8,3 C 9,8 C
06.09.2012 11:29 15,0 C 68 % 1026 hPa 0,0 l/m 12,8 km/h (3 Bft) O-SO67.5 110 16 min 0 min 9,1 C 12,0 C
06.09.2012 11:44 15,7 C 66 % 1026 hPa 0,0 l/m 12,7 km/h (3 Bft) O-SO45 115 15 min 0 min 9,4 C 12,8 C
06.09.2012 11:59 16,2 C 62 % 1026 hPa 0,0 l/m 13,6 km/h (3 Bft) NO45 40 15 min 0 min 8,9 C 13,1 C
06.09.2012 12:14 15,6 C 64 % 1026 hPa 0,0 l/m 12,0 km/h (2 Bft) O-NO45 75 15 min 0 min 8,8 C 13,0 C
06.09.2012 12:29 16,5 C 64 % 1026 hPa 0,0 l/m 15,9 km/h (3 Bft) O-SO67.5 115 15 min 0 min 9,7 C 12,7 C
06.09.2012 12:43 16,9 C 61 % 1026 hPa 0,0 l/m 16,6 km/h (3 Bft) O67.5 95 14 min 0 min 9,3 C 13,0 C
06.09.2012 12:59 17,0 C 60 % 1026 hPa 0,0 l/m 12,7 km/h (3 Bft) O-SO45 120 16 min 0 min 9,2 C 14,3 C
06.09.2012 13:14 16,9 C 61 % 1026 hPa 0,0 l/m 11,8 km/h (2 Bft) O45 90 15 min 0 min 9,3 C 14,5 C
06.09.2012 13:29 16,0 C 61 % 1026 hPa 0,0 l/m 11,8 km/h (2 Bft) O45 95 15 min 0 min 8,5 C 13,5 C
06.09.2012 13:44 15,4 C 61 % 1026 hPa 0,0 l/m 12,0 km/h (2 Bft) O45 85 15 min 0 min 7,9 C 12,7 C
06.09.2012 13:59 15,4 C 63 % 1026 hPa 0,0 l/m 8,7 km/h (2 Bft) SO67.5 140 15 min 0 min 8,4 C 14,2 C
06.09.2012 14:13 15,4 C 60 % 1026 hPa 0,0 l/m 12,5 km/h (3 Bft) O-SO67.5 110 14 min 0 min 7,7 C 12,5 C
06.09.2012 14:29 15,0 C 63 % 1026 hPa 0,0 l/m 14,1 km/h (3 Bft) NO22.5 45 16 min 0 min 8,0 C 11,5 C
06.09.2012 14:44 15,2 C 63 % 1026 hPa 0,0 l/m 7,6 km/h (2 Bft) S-SO 150 15 min 0 min 8,2 C 14,5 C
06.09.2012 14:59 15,5 C 61 % 1026 hPa 0,0 l/m 11,0 km/h (2 Bft) NW 325 15 min 0 min 8,0 C 13,2 C
06.09.2012 15:14 15,2 C 62 % 1025 hPa 0,0 l/m 8,5 km/h (2 Bft) NW67.5 315 15 min 0 min 8,0 C 14,1 C
06.09.2012 15:29 15,1 C 62 % 1025 hPa 0,0 l/m 8,1 km/h (2 Bft) NW22.5 305 15 min 0 min 7,9 C 14,2 C
06.09.2012 15:43 15,3 C 62 % 1025 hPa 0,0 l/m 7,1 km/h (2 Bft) W-NW 295 14 min 0 min 8,1 C 14,9 C
06.09.2012 15:59 15,5 C 61 % 1025 hPa 0,0 l/m 12,9 km/h (3 Bft) N45 10 16 min 0 min 8,0 C 12,5 C
06.09.2012 16:14 15,6 C 61 % 1025 hPa 0,0 l/m 8,9 km/h (2 Bft) N-NO22.5 30 15 min 0 min 8,1 C 14,3 C
06.09.2012 16:29 15,8 C 62 % 1025 hPa 0,0 l/m 8,9 km/h (2 Bft) O-SO22.5 105 15 min 0 min 8,5 C 14,5 C
06.09.2012 16:44 16,0 C 62 % 1025 hPa 0,0 l/m 0,0 km/h (0 Bft) SO 135 15 min 0 min 8,7 C 16,0 C
06.09.2012 16:59 16,1 C 62 % 1025 hPa 0,0 l/m 4,6 km/h (1 Bft) S-SO45 150 15 min 0 min 8,8 C 16,1 C
06.09.2012 17:14 16,3 C 61 % 1025 hPa 0,0 l/m 0,0 km/h (0 Bft) SO 135 15 min 0 min 8,8 C 16,3 C
06.09.2012 17:29 16,3 C 61 % 1024 hPa 0,0 l/m 6,4 km/h (2 Bft) O-NO 75 15 min 0 min 8,8 C 16,3 C
06.09.2012 17:44 16,2 C 60 % 1024 hPa 0,0 l/m 1,2 km/h (1 Bft) O-SO67.5 105 15 min 0 min 8,4 C 16,2 C
06.09.2012 17:59 16,1 C 60 % 1024 hPa 0,0 l/m 0,0 km/h (0 Bft) N-NO 20 15 min 0 min 8,3 C 16,1 C
06.09.2012 18:14 16,0 C 60 % 1024 hPa 0,0 l/m 0,0 km/h (0 Bft) NO45 35 15 min 0 min 8,2 C 16,0 C
06.09.2012 18:29 15,6 C 60 % 1024 hPa 0,0 l/m 0,0 km/h (0 Bft) NO 35 15 min 0 min 7,9 C 15,6 C
06.09.2012 18:44 15,3 C 61 % 1024 hPa 0,0 l/m 5,5 km/h (1 Bft) O-NO22.5 65 15 min 0 min 7,8 C 15,3 C
06.09.2012 18:59 15,0 C 63 % 1024 hPa 0,0 l/m 0,0 km/h (0 Bft) O 90 15 min 0 min 8,0 C 15,0 C
06.09.2012 19:14 14,4 C 64 % 1024 hPa 0,0 l/m 0,0 km/h (0 Bft) NO 45 15 min 0 min 7,7 C 14,4 C
06.09.2012 19:29 14,0 C 65 % 1024 hPa 0,0 l/m 0,0 km/h (0 Bft) NO 45 15 min 0 min 7,5 C 14,0 C
06.09.2012 19:44 13,5 C 66 % 1024 hPa 0,0 l/m 0,0 km/h (0 Bft) NO 45 15 min 0 min 7,3 C 13,5 C
06.09.2012 19:59 12,8 C 67 % 1024 hPa 0,0 l/m 0,0 km/h (0 Bft) NO 45 0 min 0 min 6,8 C 12,8 C
06.09.2012 20:14 11,9 C 69 % 1024 hPa 0,0 l/m 0,0 km/h (0 Bft) NO 45 0 min 0 min 6,4 C 11,9 C
06.09.2012 20:29 10,8 C 72 % 1024 hPa 0,0 l/m 0,0 km/h (0 Bft) NO 45 0 min 0 min 6,0 C 10,8 C
06.09.2012 20:44 9,9 C 73 % 1024 hPa 0,0 l/m 0,0 km/h (0 Bft) NO 45 0 min 0 min 5,3 C 9,9 C
06.09.2012 20:59 9,2 C 76 % 1024 hPa 0,0 l/m 0,0 km/h (0 Bft) NO 45 0 min 0 min 5,2 C 9,2 C
06.09.2012 21:14 8,5 C 77 % 1024 hPa 0,0 l/m 0,0 km/h (0 Bft) NO 45 0 min 0 min 4,7 C 8,5 C
06.09.2012 21:29 8,0 C 79 % 1024 hPa 0,0 l/m 0,0 km/h (0 Bft) NO 45 0 min 0 min 4,6 C 8,0 C
06.09.2012 21:44 7,4 C 80 % 1024 hPa 0,0 l/m 0,0 km/h (0 Bft) NO 45 0 min 0 min 4,2 C 7,4 C
06.09.2012 21:59 7,0 C 81 % 1024 hPa 0,0 l/m 0,0 km/h (0 Bft) NO 45 0 min 0 min 4,0 C 7,0 C
06.09.2012 22:14 6,5 C 82 % 1024 hPa 0,0 l/m 0,0 km/h (0 Bft) NO 45 0 min 0 min 3,7 C 6,5 C
06.09.2012 22:29 6,1 C 82 % 1024 hPa 0,0 l/m 0,0 km/h (0 Bft) NO 45 0 min 0 min 3,3 C 6,1 C
06.09.2012 22:44 5,7 C 83 % 1024 hPa 0,0 l/m 0,0 km/h (0 Bft) NO 45 0 min 0 min 3,0 C 5,7 C
06.09.2012 22:59 5,6 C 84 % 1024 hPa 0,0 l/m 0,0 km/h (0 Bft) NO 45 0 min 0 min 3,1 C 5,6 C
06.09.2012 23:14 5,4 C 84 % 1024 hPa 0,0 l/m 0,0 km/h (0 Bft) NO 45 0 min 0 min 2,9 C 5,4 C
06.09.2012 23:29 5,2 C 85 % 1024 hPa 0,0 l/m 0,0 km/h (0 Bft) NO 45 0 min 0 min 2,9 C 5,2 C
06.09.2012 23:44 4,9 C 85 % 1024 hPa 0,0 l/m 0,0 km/h (0 Bft) NO 45 0 min 0 min 2,6 C 4,9 C
06.09.2012 23:59 4,5 C 85 % 1024 hPa 0,0 l/m 0,0 km/h (0 Bft) NO 45 0 min 0 min 2,2 C 4,5 C
_ Min-Zeit 23:59 12:59 00:08 - 07:44 - - - - 23:59 03:13
Minimum _ 4,5 C 60 % 1023 hPa - 0,0 km/h (0 Bft) - - - - 2,2 C 3,0 C
_ Max-Zeit 12:59 07:44 08:59 00:08 03:13 - - 09:59 00:08 12:29 17:29
Maximum _ 17,0 C 92 % 1026 hPa 0,0 l/m 20,8 km/h
N-NO (4 Bft)
- - 16 min 0 min 9,7 C 16,3 C
Durchschnitt _ 11,6 C 77 % 1025 hPa #0,0 l/m 8,3 km/h (2 Bft) N-NO - #12:45 h #0 min. 7,5 C 9,6 C